Time;durP1;ratioP1;P1;durP2;ratioP2;P2;SDS_P1;SDS_P2;PMS_P1;PMS_P2;Temp;Humidity;BMP_temperature;BMP_pressure;BME280_temperature;BME280_humidity;BME280_pressure;Samples;Min_cycle;Max_cycle;Signal;HPM_P1;HPM_P2
2022/05/31 00:01:27;;;;;;;10.50;6.90;;;;;;;;;;1753485;82;20988;-74
2022/05/31 00:03:53;;;;;;;9.38;5.72;;;;;;;;;;1737932;81;21055;-74
2022/05/31 00:07:52;;;;;;;9.90;5.75;;;;;;;;;;1783946;79;23226;-75
2022/05/31 00:10:19;;;;;;;10.23;6.08;;;;;;;;;;1754660;81;21603;-74
2022/05/31 00:12:45;;;;;;;10.38;6.50;;;;;;;;;;1753626;81;21060;-74
2022/05/31 00:15:14;;;;;;;12.30;6.85;;;;;;;;;;1755069;81;21060;-74
2022/05/31 00:17:41;;;;;;;11.78;6.35;;;;;;;;;;1758385;81;21011;-74
2022/05/31 00:20:08;;;;;;;11.63;6.60;;;;;;;;;;1758160;81;21024;-74
2022/05/31 00:22:34;;;;;;;9.15;5.90;;;;;;;;;;1758233;81;21067;-74
2022/05/31 00:25:01;;;;;;;10.72;6.08;;;;;;;;;;1754213;81;21028;-74
2022/05/31 00:27:27;;;;;;;11.40;6.75;;;;;;;;;;1757867;81;21052;-73
2022/05/31 00:29:53;;;;;;;9.73;6.78;;;;;;;;;;1722214;83;21052;-73
2022/05/31 00:32:20;;;;;;;11.50;6.72;;;;;;;;;;1719264;83;21128;-74
2022/05/31 00:34:48;;;;;;;11.12;6.80;;;;;;;;;;1724090;83;21027;-73
2022/05/31 00:37:14;;;;;;;12.80;7.75;;;;;;;;;;1724172;83;21559;-73
2022/05/31 00:39:41;;;;;;;12.95;7.42;;;;;;;;;;1717174;83;21076;-73
2022/05/31 00:42:09;;;;;;;12.80;7.17;;;;;;;;;;1721967;83;21025;-74
2022/05/31 00:44:36;;;;;;;12.05;7.12;;;;;;;;;;1714248;83;21577;-73
2022/05/31 00:47:10;;;;;;;10.72;6.87;;;;;;;;;;1717523;83;21568;-74
2022/05/31 00:49:38;;;;;;;11.12;6.97;;;;;;;;;;1723560;83;21057;-73
2022/05/31 00:52:08;;;;;;;10.88;6.55;;;;;;;;;;1724755;83;21591;-73
2022/05/31 00:54:36;;;;;;;11.15;6.58;;;;;;;;;;1723064;83;21072;-74
2022/05/31 00:57:02;;;;;;;9.33;6.22;;;;;;;;;;1715874;83;21064;-74
2022/05/31 00:59:30;;;;;;;9.70;6.33;;;;;;;;;;1699997;84;21041;-74
2022/05/31 01:04:47;;;;;;;9.70;6.17;;;;;;;;;;1614900;78;21663;-74
2022/05/31 01:07:13;;;;;;;10.98;6.42;;;;;;;;;;1665783;85;21062;-73
2022/05/31 01:09:39;;;;;;;10.13;6.42;;;;;;;;;;1666433;86;22213;-74
2022/05/31 01:12:25;;;;;;;11.38;6.17;;;;;;;;;;1666265;86;21521;-74
2022/05/31 01:15:10;;;;;;;10.93;6.35;;;;;;;;;;1666470;86;21066;-73
2022/05/31 01:17:44;;;;;;;9.78;5.45;;;;;;;;;;1653677;85;21624;-74
2022/05/31 01:20:14;;;;;;;8.80;5.90;;;;;;;;;;1653834;86;21629;-75
2022/05/31 01:22:43;;;;;;;8.98;5.42;;;;;;;;;;1666388;85;21089;-74
2022/05/31 01:25:14;;;;;;;9.48;5.70;;;;;;;;;;1665888;86;21070;-74
2022/05/31 01:27:43;;;;;;;7.50;5.17;;;;;;;;;;1666074;86;21055;-73
2022/05/31 01:30:12;;;;;;;10.55;5.37;;;;;;;;;;1636981;85;21054;-73
2022/05/31 01:32:43;;;;;;;8.43;5.20;;;;;;;;;;1666338;86;21470;-73
2022/05/31 01:35:14;;;;;;;8.05;5.40;;;;;;;;;;1665966;85;21107;-73
2022/05/31 01:37:54;;;;;;;6.85;4.80;;;;;;;;;;1666059;85;21022;-74
2022/05/31 01:40:23;;;;;;;7.70;4.87;;;;;;;;;;1665825;85;21059;-74
2022/05/31 01:42:49;;;;;;;6.83;5.05;;;;;;;;;;1665815;85;21055;-74
2022/05/31 01:45:17;;;;;;;5.95;4.78;;;;;;;;;;1665972;86;21011;-74
2022/05/31 01:50:15;;;;;;;6.72;5.15;;;;;;;;;;1797093;79;22277;-73
2022/05/31 01:52:42;;;;;;;9.28;5.10;;;;;;;;;;1761216;81;21040;-74
2022/05/31 01:55:09;;;;;;;7.03;5.05;;;;;;;;;;1761607;81;20985;-75
2022/05/31 01:57:36;;;;;;;8.83;5.72;;;;;;;;;;1736836;81;21063;-74
2022/05/31 02:00:04;;;;;;;7.30;5.25;;;;;;;;;;1759780;81;21001;-73
2022/05/31 02:02:35;;;;;;;6.85;5.20;;;;;;;;;;1755912;81;21107;-74
2022/05/31 02:05:03;;;;;;;9.95;5.35;;;;;;;;;;1708524;83;21076;-73
2022/05/31 02:07:30;;;;;;;8.00;5.40;;;;;;;;;;1728881;83;21033;-73
2022/05/31 02:09:57;;;;;;;6.95;5.58;;;;;;;;;;1730668;83;21051;-74
2022/05/31 02:12:26;;;;;;;6.42;5.08;;;;;;;;;;1731126;82;21012;-73
2022/05/31 02:15:00;;;;;;;6.78;4.97;;;;;;;;;;1685869;83;21012;-74
2022/05/31 02:17:26;;;;;;;6.42;5.55;;;;;;;;;;1731667;83;21483;-74
2022/05/31 02:19:57;;;;;;;6.30;4.85;;;;;;;;;;1728026;83;21075;-73
2022/05/31 02:22:27;;;;;;;7.58;5.00;;;;;;;;;;1725106;83;21067;-73
2022/05/31 02:24:53;;;;;;;6.53;5.08;;;;;;;;;;1729262;83;21033;-73
2022/05/31 02:27:19;;;;;;;6.50;5.10;;;;;;;;;;1731483;82;21033;-74
2022/05/31 02:29:46;;;;;;;7.97;5.10;;;;;;;;;;1727775;82;21095;-73
2022/05/31 02:32:13;;;;;;;7.25;4.75;;;;;;;;;;1729926;83;21048;-73
2022/05/31 02:34:41;;;;;;;8.13;5.03;;;;;;;;;;1730536;83;21099;-74
2022/05/31 02:37:07;;;;;;;6.87;5.12;;;;;;;;;;1731043;83;21071;-73
2022/05/31 02:39:34;;;;;;;9.00;4.92;;;;;;;;;;1731241;83;21103;-73
2022/05/31 02:42:01;;;;;;;8.83;5.50;;;;;;;;;;1731311;83;21094;-73
2022/05/31 02:44:28;;;;;;;7.33;5.50;;;;;;;;;;1731641;82;21046;-74
2022/05/31 02:46:54;;;;;;;8.65;5.53;;;;;;;;;;1730915;83;21555;-74
2022/05/31 02:49:21;;;;;;;10.23;6.50;;;;;;;;;;1712509;83;21001;-73
2022/05/31 02:51:48;;;;;;;8.68;5.35;;;;;;;;;;1731533;83;21099;-74
2022/05/31 02:54:15;;;;;;;10.15;6.22;;;;;;;;;;1730440;83;21048;-74
2022/05/31 02:57:01;;;;;;;8.73;5.78;;;;;;;;;;1731874;83;21092;-73
2022/05/31 02:59:32;;;;;;;9.83;6.20;;;;;;;;;;1709578;83;21059;-75
2022/05/31 03:02:06;;;;;;;8.53;5.87;;;;;;;;;;1699180;84;21048;-74
2022/05/31 03:04:51;;;;;;;7.97;5.78;;;;;;;;;;1721333;83;21159;-74
2022/05/31 03:07:37;;;;;;;7.70;6.03;;;;;;;;;;1702673;82;21059;-74
2022/05/31 03:10:08;;;;;;;11.95;6.45;;;;;;;;;;1725430;83;21602;-72
2022/05/31 03:12:35;;;;;;;9.68;6.55;;;;;;;;;;1726302;83;21527;-74
2022/05/31 03:15:03;;;;;;;7.62;5.85;;;;;;;;;;1728408;83;21064;-74
2022/05/31 03:17:32;;;;;;;8.13;5.90;;;;;;;;;;1731331;82;21087;-73
2022/05/31 03:20:00;;;;;;;7.42;5.55;;;;;;;;;;1730964;82;21085;-74
2022/05/31 03:22:27;;;;;;;8.23;5.47;;;;;;;;;;1731373;83;21048;-75
2022/05/31 03:24:54;;;;;;;6.78;5.47;;;;;;;;;;1728866;83;21032;-74
2022/05/31 03:27:20;;;;;;;9.43;5.87;;;;;;;;;;1725893;83;21024;-73
2022/05/31 03:29:47;;;;;;;5.80;5.08;;;;;;;;;;1727012;83;21063;-74
2022/05/31 03:32:13;;;;;;;6.37;5.65;;;;;;;;;;1727978;83;21487;-74
2022/05/31 03:34:39;;;;;;;7.47;5.17;;;;;;;;;;1725885;83;21037;-74
2022/05/31 03:37:06;;;;;;;6.47;5.72;;;;;;;;;;1713371;83;21024;-74
2022/05/31 03:39:32;;;;;;;9.13;5.12;;;;;;;;;;1730664;83;21076;-73
2022/05/31 03:42:01;;;;;;;7.12;5.30;;;;;;;;;;1728331;83;21036;-74
2022/05/31 03:44:28;;;;;;;6.42;5.70;;;;;;;;;;1731124;83;21550;-74
2022/05/31 03:47:00;;;;;;;8.95;4.72;;;;;;;;;;1730918;83;21112;-74
2022/05/31 03:49:35;;;;;;;6.85;5.45;;;;;;;;;;1712138;83;21081;-73
2022/05/31 03:52:03;;;;;;;7.53;5.53;;;;;;;;;;1719121;83;20993;-73
2022/05/31 03:54:34;;;;;;;10.18;6.17;;;;;;;;;;1722919;83;21043;-74
2022/05/31 03:57:15;;;;;;;6.67;5.97;;;;;;;;;;1718427;83;21052;-73
2022/05/31 03:59:42;;;;;;;6.78;5.85;;;;;;;;;;1715027;83;21524;-74
2022/05/31 04:02:08;;;;;;;5.92;5.30;;;;;;;;;;1719453;83;21112;-74
2022/05/31 04:04:34;;;;;;;8.08;6.33;;;;;;;;;;1721318;83;21071;-74
2022/05/31 04:07:01;;;;;;;7.05;5.35;;;;;;;;;;1723449;83;21043;-73
2022/05/31 04:09:27;;;;;;;9.63;5.55;;;;;;;;;;1722899;83;21107;-73
2022/05/31 04:11:56;;;;;;;8.38;5.70;;;;;;;;;;1719542;83;21555;-73
2022/05/31 04:14:24;;;;;;;7.08;5.65;;;;;;;;;;1713743;83;21076;-73
2022/05/31 04:16:52;;;;;;;6.45;5.62;;;;;;;;;;1721934;83;21067;-73
2022/05/31 04:19:18;;;;;;;7.55;5.47;;;;;;;;;;1719553;83;21104;-72
2022/05/31 04:21:44;;;;;;;6.22;5.30;;;;;;;;;;1718279;83;21041;-74
2022/05/31 04:24:11;;;;;;;6.65;5.95;;;;;;;;;;1717897;83;21032;-73
2022/05/31 04:26:40;;;;;;;8.48;5.55;;;;;;;;;;1721661;83;21012;-73
2022/05/31 04:29:25;;;;;;;7.33;6.03;;;;;;;;;;1720746;83;21551;-73
2022/05/31 04:32:10;;;;;;;9.60;5.83;;;;;;;;;;1722982;83;21590;-74
2022/05/31 04:34:42;;;;;;;8.58;6.35;;;;;;;;;;1723422;83;21059;-74
2022/05/31 04:37:10;;;;;;;9.38;6.30;;;;;;;;;;1723352;83;20968;-74
2022/05/31 04:39:56;;;;;;;6.67;5.47;;;;;;;;;;1723394;83;21063;-74
2022/05/31 04:42:37;;;;;;;7.53;6.30;;;;;;;;;;1686951;83;21103;-73
2022/05/31 04:45:06;;;;;;;6.92;5.70;;;;;;;;;;1721173;83;21003;-73
2022/05/31 04:47:34;;;;;;;6.80;6.10;;;;;;;;;;1694789;83;20972;-73
2022/05/31 04:50:01;;;;;;;7.85;5.78;;;;;;;;;;1717287;83;21061;-72
2022/05/31 04:52:29;;;;;;;7.35;6.00;;;;;;;;;;1713998;83;21606;-73
2022/05/31 04:54:56;;;;;;;7.12;6.10;;;;;;;;;;1712342;83;21037;-74
2022/05/31 04:57:30;;;;;;;7.95;6.53;;;;;;;;;;1710790;83;21535;-74
2022/05/31 04:59:56;;;;;;;8.18;6.22;;;;;;;;;;1712560;83;21594;-75
2022/05/31 05:02:22;;;;;;;6.72;6.00;;;;;;;;;;1716907;83;21020;-74
2022/05/31 05:04:52;;;;;;;7.33;6.17;;;;;;;;;;1711816;83;21138;-74
2022/05/31 05:07:20;;;;;;;7.12;6.40;;;;;;;;;;1712410;83;21053;-74
2022/05/31 05:09:47;;;;;;;8.80;6.37;;;;;;;;;;1712132;83;21088;-76
2022/05/31 05:12:24;;;;;;;9.15;6.45;;;;;;;;;;1716137;83;21033;-73
2022/05/31 05:14:53;;;;;;;7.80;6.83;;;;;;;;;;1717296;83;21013;-73
2022/05/31 05:17:25;;;;;;;9.43;6.83;;;;;;;;;;1718087;83;21028;-72
2022/05/31 05:19:52;;;;;;;8.68;6.50;;;;;;;;;;1714784;83;21009;-73
2022/05/31 05:22:18;;;;;;;8.18;6.65;;;;;;;;;;1715498;83;21040;-74
2022/05/31 05:24:44;;;;;;;8.58;6.83;;;;;;;;;;1715130;83;21137;-73
2022/05/31 05:27:21;;;;;;;11.10;7.25;;;;;;;;;;1709855;83;21006;-73
2022/05/31 05:32:39;;;;;;;8.55;6.62;;;;;;;;;;1715338;83;21037;-74
2022/05/31 05:35:13;;;;;;;7.22;6.12;;;;;;;;;;1717790;83;21029;-74
2022/05/31 05:37:42;;;;;;;8.10;7.00;;;;;;;;;;1707795;83;21033;-74
2022/05/31 05:40:12;;;;;;;7.67;6.40;;;;;;;;;;1718243;83;21607;-74
2022/05/31 05:42:40;;;;;;;8.08;6.85;;;;;;;;;;1717343;83;20998;-73
2022/05/31 05:45:10;;;;;;;7.10;6.40;;;;;;;;;;1714709;83;21100;-74
2022/05/31 05:47:37;;;;;;;7.42;6.55;;;;;;;;;;1718400;83;21068;-74
2022/05/31 05:50:03;;;;;;;8.23;6.78;;;;;;;;;;1723978;83;21563;-73
2022/05/31 05:52:48;;;;;;;13.18;6.72;;;;;;;;;;1727973;83;21040;-74
2022/05/31 05:55:34;;;;;;;8.48;6.60;;;;;;;;;;1730765;83;21049;-74
2022/05/31 05:58:10;;;;;;;10.63;7.25;;;;;;;;;;1719684;82;21294;-73
2022/05/31 06:00:52;;;;;;;8.60;6.45;;;;;;;;;;1730551;83;21040;-73
2022/05/31 06:03:21;;;;;;;8.00;6.42;;;;;;;;;;1726759;82;21052;-73
2022/05/31 06:05:50;;;;;;;9.53;6.62;;;;;;;;;;1726440;82;21047;-73
2022/05/31 06:08:20;;;;;;;8.20;6.47;;;;;;;;;;1729721;82;21532;-73
2022/05/31 06:10:57;;;;;;;7.47;6.60;;;;;;;;;;1728812;83;21048;-73
2022/05/31 06:13:25;;;;;;;7.85;6.60;;;;;;;;;;1729861;83;21068;-73
2022/05/31 06:15:53;;;;;;;7.67;6.35;;;;;;;;;;1689057;84;21082;-74
2022/05/31 06:18:20;;;;;;;7.55;6.72;;;;;;;;;;1727717;83;21064;-74
2022/05/31 06:20:47;;;;;;;7.25;6.33;;;;;;;;;;1730977;82;21067;-74
2022/05/31 06:23:13;;;;;;;8.43;6.80;;;;;;;;;;1727647;83;21004;-74
2022/05/31 06:25:41;;;;;;;7.75;6.45;;;;;;;;;;1730999;83;21040;-74
2022/05/31 06:28:26;;;;;;;7.72;5.97;;;;;;;;;;1731227;83;21080;-74
2022/05/31 06:30:52;;;;;;;7.00;6.03;;;;;;;;;;1731175;83;21516;-73
2022/05/31 06:33:18;;;;;;;8.03;6.17;;;;;;;;;;1730706;83;21025;-72
2022/05/31 06:35:45;;;;;;;8.18;6.22;;;;;;;;;;1729371;83;20997;-74
2022/05/31 06:38:13;;;;;;;9.30;6.47;;;;;;;;;;1731208;82;21662;-74
2022/05/31 06:40:40;;;;;;;7.35;6.65;;;;;;;;;;1726761;83;21008;-74
2022/05/31 06:43:15;;;;;;;7.83;7.03;;;;;;;;;;1715335;83;21036;-73
2022/05/31 06:45:53;;;;;;;7.55;6.00;;;;;;;;;;1729562;83;21049;-74
2022/05/31 06:48:24;;;;;;;7.05;5.85;;;;;;;;;;1731595;83;21037;-73
2022/05/31 06:51:04;;;;;;;6.12;5.53;;;;;;;;;;1719885;83;21052;-72
2022/05/31 06:56:48;;;;;;;7.22;6.25;;;;;;;;;;1726048;83;21088;-73
2022/05/31 06:59:21;;;;;;;7.65;6.20;;;;;;;;;;1722911;82;21041;-73
2022/05/31 07:01:48;;;;;;;10.15;6.30;;;;;;;;;;1706238;83;21053;-74
2022/05/31 07:04:15;;;;;;;7.08;6.37;;;;;;;;;;1724565;83;21540;-73
2022/05/31 07:06:42;;;;;;;7.65;6.50;;;;;;;;;;1723970;83;21017;-72
2022/05/31 07:09:25;;;;;;;6.92;6.10;;;;;;;;;;1723677;82;21060;-74
2022/05/31 07:11:56;;;;;;;9.20;6.45;;;;;;;;;;1725733;83;21009;-73
2022/05/31 07:14:24;;;;;;;9.10;6.45;;;;;;;;;;1711209;83;21041;-73
2022/05/31 07:17:08;;;;;;;8.05;6.00;;;;;;;;;;1723658;83;21072;-72
2022/05/31 07:19:37;;;;;;;8.70;6.75;;;;;;;;;;1725361;83;21100;-72
2022/05/31 07:22:04;;;;;;;7.40;6.05;;;;;;;;;;1721619;83;21045;-72
2022/05/31 07:24:31;;;;;;;7.08;6.05;;;;;;;;;;1720484;83;21013;-73
2022/05/31 07:27:05;;;;;;;8.55;6.20;;;;;;;;;;1709805;83;21095;-75
2022/05/31 07:29:33;;;;;;;8.28;6.53;;;;;;;;;;1720226;83;21108;-74
2022/05/31 07:32:00;;;;;;;8.58;6.10;;;;;;;;;;1720849;83;21017;-75
2022/05/31 07:34:29;;;;;;;7.12;5.70;;;;;;;;;;1720962;83;21524;-75
2022/05/31 07:36:56;;;;;;;9.00;6.20;;;;;;;;;;1722419;83;21580;-74
2022/05/31 07:39:23;;;;;;;8.60;5.90;;;;;;;;;;1718327;83;21057;-75
2022/05/31 07:41:49;;;;;;;7.83;5.65;;;;;;;;;;1724253;83;21082;-74
2022/05/31 07:44:17;;;;;;;9.75;5.67;;;;;;;;;;1726151;83;21513;-75
2022/05/31 07:46:45;;;;;;;8.40;5.62;;;;;;;;;;1725926;83;21554;-76
2022/05/31 07:49:11;;;;;;;9.85;6.20;;;;;;;;;;1726020;83;21585;-73
2022/05/31 07:51:48;;;;;;;9.95;7.28;;;;;;;;;;1724041;83;21052;-74
2022/05/31 07:54:33;;;;;;;8.08;6.58;;;;;;;;;;1725200;83;21017;-73
2022/05/31 08:00:22;;;;;;;7.45;6.62;;;;;;;;;;1720470;83;21331;-73
2022/05/31 08:02:48;;;;;;;7.40;6.15;;;;;;;;;;1723330;83;21021;-74
2022/05/31 08:05:14;;;;;;;8.35;6.10;;;;;;;;;;1718828;83;21041;-74
2022/05/31 08:07:40;;;;;;;7.33;6.45;;;;;;;;;;1719799;83;21028;-73
2022/05/31 08:10:07;;;;;;;7.47;6.22;;;;;;;;;;1724362;83;21028;-74
2022/05/31 08:12:36;;;;;;;7.95;5.90;;;;;;;;;;1725741;83;21060;-74
2022/05/31 08:15:05;;;;;;;9.75;5.95;;;;;;;;;;1726045;83;21016;-75
2022/05/31 08:17:31;;;;;;;7.42;5.42;;;;;;;;;;1726347;82;20953;-74
2022/05/31 08:19:58;;;;;;;15.63;5.50;;;;;;;;;;1725747;83;21111;-76
2022/05/31 08:22:24;;;;;;;6.75;5.37;;;;;;;;;;1724519;83;21032;-74
2022/05/31 08:24:51;;;;;;;7.50;5.37;;;;;;;;;;1721963;82;21038;-76
2022/05/31 08:27:16;;;;;;;5.97;4.85;;;;;;;;;;1720478;83;21071;-74
2022/05/31 08:29:44;;;;;;;5.92;4.28;;;;;;;;;;1728537;82;21000;-75
2022/05/31 08:32:10;;;;;;;6.25;4.40;;;;;;;;;;1683627;85;21622;-76
2022/05/31 08:34:37;;;;;;;5.97;4.85;;;;;;;;;;1730962;82;21076;-74
2022/05/31 08:37:03;;;;;;;9.93;4.72;;;;;;;;;;1720581;83;21057;-74
2022/05/31 08:39:29;;;;;;;5.65;4.75;;;;;;;;;;1711120;82;21109;-75
2022/05/31 08:42:04;;;;;;;6.40;4.92;;;;;;;;;;1725769;82;21139;-75
2022/05/31 08:44:32;;;;;;;5.60;5.00;;;;;;;;;;1725960;82;21143;-75
2022/05/31 08:47:00;;;;;;;6.37;5.05;;;;;;;;;;1725969;82;21028;-74
2022/05/31 08:52:23;;;;;;;5.12;4.28;;;;;;;;;;1726175;83;21029;-75
2022/05/31 08:57:47;;;;;;;6.05;4.72;;;;;;;;;;1721238;82;21516;-75
2022/05/31 09:00:16;;;;;;;5.83;3.98;;;;;;;;;;1734994;82;21092;-75
2022/05/31 09:02:53;;;;;;;6.65;3.80;;;;;;;;;;1724875;83;20993;-75
2022/05/31 09:05:26;;;;;;;6.80;3.98;;;;;;;;;;1725348;82;21139;-74
2022/05/31 09:07:54;;;;;;;6.20;3.55;;;;;;;;;;1697459;83;21111;-75
2022/05/31 09:10:36;;;;;;;7.03;4.12;;;;;;;;;;1723434;83;21060;-76
2022/05/31 09:13:04;;;;;;;5.35;3.67;;;;;;;;;;1723810;82;21025;-76
2022/05/31 09:15:33;;;;;;;7.78;3.50;;;;;;;;;;1720022;83;21040;-77
2022/05/31 09:18:03;;;;;;;6.42;3.58;;;;;;;;;;1724295;83;21043;-77
2022/05/31 09:20:31;;;;;;;5.22;3.33;;;;;;;;;;1725560;83;21072;-77
2022/05/31 09:22:57;;;;;;;4.05;2.80;;;;;;;;;;1725762;83;21001;-78
2022/05/31 09:25:24;;;;;;;6.58;3.33;;;;;;;;;;1701171;83;20973;-77
2022/05/31 09:27:51;;;;;;;4.45;3.10;;;;;;;;;;1722985;83;21321;-76
2022/05/31 09:30:25;;;;;;;5.25;3.40;;;;;;;;;;1725926;82;21616;-77
2022/05/31 09:32:57;;;;;;;4.25;2.90;;;;;;;;;;1726200;83;21056;-77
2022/05/31 09:35:25;;;;;;;3.17;2.55;;;;;;;;;;1726028;82;21524;-75
2022/05/31 09:38:10;;;;;;;3.67;2.90;;;;;;;;;;1725528;82;21612;-76
2022/05/31 09:40:39;;;;;;;4.50;2.65;;;;;;;;;;1725943;83;21022;-76
2022/05/31 09:43:07;;;;;;;3.37;2.40;;;;;;;;;;1725056;83;21573;-76
2022/05/31 09:45:35;;;;;;;3.25;2.60;;;;;;;;;;1725664;82;21053;-76
2022/05/31 09:48:03;;;;;;;4.67;2.55;;;;;;;;;;1726059;83;21018;-76
2022/05/31 09:50:30;;;;;;;5.08;2.58;;;;;;;;;;1725701;82;21094;-76
2022/05/31 09:52:58;;;;;;;3.50;2.37;;;;;;;;;;1725809;83;21132;-77
2022/05/31 09:58:37;;;;;;;3.08;2.45;;;;;;;;;;1726145;83;21068;-75
2022/05/31 10:01:24;;;;;;;3.77;2.58;;;;;;;;;;1656432;86;21061;-76
2022/05/31 10:03:53;;;;;;;3.87;2.90;;;;;;;;;;1676364;84;21626;-77
2022/05/31 10:06:21;;;;;;;3.08;2.45;;;;;;;;;;1696257;84;21122;-76
2022/05/31 10:08:52;;;;;;;3.75;2.95;;;;;;;;;;1697111;84;21080;-76
2022/05/31 10:11:28;;;;;;;3.33;2.90;;;;;;;;;;1696664;84;21139;-76
2022/05/31 10:14:11;;;;;;;4.72;2.92;;;;;;;;;;1697274;84;21092;-75
2022/05/31 10:16:40;;;;;;;4.92;3.10;;;;;;;;;;1671703;84;21610;-76
2022/05/31 10:19:08;;;;;;;3.90;2.95;;;;;;;;;;1697274;84;21056;-76
2022/05/31 10:21:37;;;;;;;6.35;3.60;;;;;;;;;;1696761;84;21001;-80
2022/05/31 10:24:17;;;;;;;4.60;3.37;;;;;;;;;;1696089;84;21087;-76
2022/05/31 10:27:08;;;;;;;5.55;3.50;;;;;;;;;;1697107;84;21096;-76
2022/05/31 10:29:51;;;;;;;4.78;3.77;;;;;;;;;;1695338;84;21138;-77
2022/05/31 10:32:43;;;;;;;4.85;3.72;;;;;;;;;;1697054;84;21508;-76
2022/05/31 10:35:11;;;;;;;4.40;3.47;;;;;;;;;;1697473;84;21064;-76
2022/05/31 10:37:40;;;;;;;5.90;4.05;;;;;;;;;;1697170;84;21082;-75
2022/05/31 10:40:09;;;;;;;5.08;3.80;;;;;;;;;;1696789;84;21135;-75
2022/05/31 10:42:37;;;;;;;4.62;3.80;;;;;;;;;;1697151;84;21057;-74
2022/05/31 10:45:04;;;;;;;4.62;3.83;;;;;;;;;;1697354;84;21060;-75
2022/05/31 10:47:30;;;;;;;5.50;3.70;;;;;;;;;;1697078;84;21056;-76
2022/05/31 10:49:56;;;;;;;4.37;3.62;;;;;;;;;;1697240;84;21403;-75
2022/05/31 10:52:33;;;;;;;4.45;3.47;;;;;;;;;;1701602;84;21107;-75
2022/05/31 10:55:18;;;;;;;4.78;3.12;;;;;;;;;;1701805;84;21114;-75
2022/05/31 10:57:50;;;;;;;5.22;3.70;;;;;;;;;;1702415;84;21075;-75
2022/05/31 11:00:20;;;;;;;6.60;3.65;;;;;;;;;;1702294;84;21044;-74
2022/05/31 11:02:50;;;;;;;4.95;3.75;;;;;;;;;;1702470;84;21670;-75
2022/05/31 11:05:19;;;;;;;7.50;4.67;;;;;;;;;;1701471;84;21091;-74
2022/05/31 11:13:30;;;;;;;5.72;3.95;;;;;;;;;;1702396;84;20100;-75
2022/05/31 11:16:10;;;;;;;5.62;3.90;;;;;;;;;;1702580;84;21111;-74
2022/05/31 11:18:39;;;;;;;4.97;4.00;;;;;;;;;;1702536;84;21382;-79
2022/05/31 11:21:07;;;;;;;5.72;4.03;;;;;;;;;;1726268;83;21076;-73
2022/05/31 11:23:38;;;;;;;4.53;3.70;;;;;;;;;;1728924;83;21116;-73
2022/05/31 11:26:24;;;;;;;4.15;3.60;;;;;;;;;;1730321;83;21598;-73
2022/05/31 11:29:01;;;;;;;4.78;3.70;;;;;;;;;;1729061;83;21072;-72
2022/05/31 11:31:39;;;;;;;4.33;3.47;;;;;;;;;;1730917;83;21049;-72
2022/05/31 11:34:13;;;;;;;5.03;3.58;;;;;;;;;;1731751;82;21042;-74
2022/05/31 11:36:58;;;;;;;6.40;4.05;;;;;;;;;;1731142;82;21046;-73
2022/05/31 11:39:38;;;;;;;5.30;4.10;;;;;;;;;;1731536;83;21069;-74
2022/05/31 11:42:24;;;;;;;5.20;4.15;;;;;;;;;;1733182;83;21020;-74
2022/05/31 11:45:01;;;;;;;5.30;4.15;;;;;;;;;;1730531;81;21039;-72
2022/05/31 11:47:46;;;;;;;5.67;3.98;;;;;;;;;;1734490;81;21036;-73
2022/05/31 11:50:16;;;;;;;6.08;3.77;;;;;;;;;;1735335;83;21008;-75
2022/05/31 11:53:03;;;;;;;4.62;3.70;;;;;;;;;;1723672;81;21076;-75
2022/05/31 11:55:30;;;;;;;4.12;3.33;;;;;;;;;;1628227;85;21588;-74
2022/05/31 11:58:17;;;;;;;3.55;3.00;;;;;;;;;;1689796;83;21623;-74
2022/05/31 12:00:46;;;;;;;3.72;3.02;;;;;;;;;;1714170;84;21059;-74
2022/05/31 12:03:23;;;;;;;4.05;3.30;;;;;;;;;;1712328;83;21085;-74
2022/05/31 12:05:50;;;;;;;3.95;3.30;;;;;;;;;;1712972;83;21045;-74
2022/05/31 12:08:17;;;;;;;3.85;3.02;;;;;;;;;;1712637;84;21580;-74
2022/05/31 12:10:45;;;;;;;4.83;3.27;;;;;;;;;;1712477;84;21080;-73
2022/05/31 12:13:15;;;;;;;4.10;3.08;;;;;;;;;;1712295;84;21021;-73
2022/05/31 12:15:45;;;;;;;3.85;2.90;;;;;;;;;;1712617;83;21040;-73
2022/05/31 12:18:13;;;;;;;4.22;3.20;;;;;;;;;;1735269;82;21021;-73
2022/05/31 12:20:42;;;;;;;5.33;3.50;;;;;;;;;;1711573;82;21022;-74
2022/05/31 12:24:43;;;;;;;6.65;3.77;;;;;;;;;;1802187;79;22806;-73
2022/05/31 12:27:15;;;;;;;3.87;3.20;;;;;;;;;;1757125;81;21103;-73
2022/05/31 12:29:51;;;;;;;8.80;3.45;;;;;;;;;;1756185;81;21033;-73
2022/05/31 12:32:22;;;;;;;5.28;3.40;;;;;;;;;;1753710;82;21095;-73
2022/05/31 12:34:50;;;;;;;5.87;3.27;;;;;;;;;;1755992;81;21013;-72
2022/05/31 12:37:16;;;;;;;3.60;3.02;;;;;;;;;;1755903;82;21546;-73
2022/05/31 12:39:43;;;;;;;4.78;3.10;;;;;;;;;;1758409;81;21068;-73
2022/05/31 12:42:17;;;;;;;4.72;3.50;;;;;;;;;;1761516;81;21025;-72
2022/05/31 12:44:46;;;;;;;7.35;3.40;;;;;;;;;;1761222;81;20981;-72
2022/05/31 12:47:29;;;;;;;4.22;3.02;;;;;;;;;;1758534;80;21129;-73
2022/05/31 12:50:01;;;;;;;8.25;3.65;;;;;;;;;;1751496;81;21064;-74
2022/05/31 12:52:41;;;;;;;3.92;2.77;;;;;;;;;;1755711;81;21623;-76
2022/05/31 12:55:03;;;;;;;5.47;3.22;;;;;;;;;;1755215;81;21560;-72
2022/05/31 13:00:33;;;;;;;3.17;2.70;;;;;;;;;;1733374;81;20982;-74
2022/05/31 13:03:00;;;;;;;4.28;2.90;;;;;;;;;;1742319;81;21642;-74
2022/05/31 13:05:29;;;;;;;3.30;2.90;;;;;;;;;;1739319;82;21057;-74
2022/05/31 13:07:56;;;;;;;4.80;3.20;;;;;;;;;;1744637;82;21016;-73
2022/05/31 13:10:28;;;;;;;3.65;2.90;;;;;;;;;;1721285;82;21044;-73
2022/05/31 13:21:12;;;;;;;3.67;2.65;;;;;;;;;;1708223;84;21026;-74
2022/05/31 13:23:41;;;;;;;3.08;2.67;;;;;;;;;;1753987;81;21096;-74
2022/05/31 13:26:17;;;;;;;2.92;2.60;;;;;;;;;;1747496;82;21060;-73
2022/05/31 13:28:51;;;;;;;4.62;2.80;;;;;;;;;;1754381;82;21080;-75
2022/05/31 13:31:19;;;;;;;2.95;2.65;;;;;;;;;;1736165;82;21024;-73
2022/05/31 13:33:49;;;;;;;2.98;2.45;;;;;;;;;;1738541;82;21504;-73
2022/05/31 13:36:25;;;;;;;3.25;2.40;;;;;;;;;;1750084;82;21619;-74
2022/05/31 13:38:57;;;;;;;3.22;2.67;;;;;;;;;;1753058;81;21104;-74
2022/05/31 13:41:22;;;;;;;2.70;2.17;;;;;;;;;;1731438;82;21028;-73
2022/05/31 13:43:51;;;;;;;2.95;2.33;;;;;;;;;;1736386;82;21036;-73
2022/05/31 13:46:26;;;;;;;7.12;2.70;;;;;;;;;;1723261;83;21056;-73
2022/05/31 13:48:55;;;;;;;3.33;2.47;;;;;;;;;;1723435;83;21064;-73
2022/05/31 13:51:23;;;;;;;4.12;2.37;;;;;;;;;;1723881;83;21533;-73
2022/05/31 13:53:49;;;;;;;3.77;2.50;;;;;;;;;;1723730;83;21013;-73
2022/05/31 13:56:16;;;;;;;7.90;2.77;;;;;;;;;;1723783;83;21232;-72
2022/05/31 13:58:42;;;;;;;4.05;2.50;;;;;;;;;;1723715;83;21028;-73
2022/05/31 14:01:22;;;;;;;5.80;2.62;;;;;;;;;;1723775;83;21566;-74
2022/05/31 14:03:48;;;;;;;3.02;2.40;;;;;;;;;;1723378;83;21174;-77
2022/05/31 14:06:16;;;;;;;4.03;2.50;;;;;;;;;;1723742;83;21115;-76
2022/05/31 14:08:52;;;;;;;3.27;2.20;;;;;;;;;;1723646;83;21090;-77
2022/05/31 14:11:23;;;;;;;4.25;2.15;;;;;;;;;;1723357;83;21095;-76
2022/05/31 14:13:50;;;;;;;2.75;2.27;;;;;;;;;;1724051;83;21004;-76
2022/05/31 14:16:21;;;;;;;2.80;2.33;;;;;;;;;;1723870;83;21564;-75
2022/05/31 14:18:49;;;;;;;3.83;2.20;;;;;;;;;;1722687;83;21266;-75
2022/05/31 14:21:16;;;;;;;4.62;2.42;;;;;;;;;;1719979;83;22016;-76
2022/05/31 14:23:44;;;;;;;2.60;2.12;;;;;;;;;;1718857;81;21029;-74
2022/05/31 14:26:10;;;;;;;2.87;2.17;;;;;;;;;;1716013;82;20997;-74
2022/05/31 14:28:37;;;;;;;3.45;2.50;;;;;;;;;;1710418;82;21821;-75
2022/05/31 14:31:06;;;;;;;2.50;2.30;;;;;;;;;;1689099;84;21045;-73
2022/05/31 14:33:33;;;;;;;4.30;2.20;;;;;;;;;;1710370;84;21044;-74
2022/05/31 14:36:00;;;;;;;2.77;2.42;;;;;;;;;;1712795;82;21006;-74
2022/05/31 14:38:37;;;;;;;4.78;2.37;;;;;;;;;;1734213;82;21044;-74
2022/05/31 14:41:04;;;;;;;2.70;2.25;;;;;;;;;;1724197;82;21044;-73
2022/05/31 14:43:50;;;;;;;2.85;2.55;;;;;;;;;;1739672;82;21026;-72
2022/05/31 14:46:23;;;;;;;2.52;2.33;;;;;;;;;;1712066;82;20985;-75
2022/05/31 14:48:51;;;;;;;4.25;2.45;;;;;;;;;;1736545;82;20982;-73
2022/05/31 14:51:22;;;;;;;3.62;2.60;;;;;;;;;;1739710;82;21029;-73
2022/05/31 14:53:51;;;;;;;4.42;2.60;;;;;;;;;;1737642;82;21073;-74
2022/05/31 14:56:21;;;;;;;3.50;2.60;;;;;;;;;;1713448;82;21139;-73
2022/05/31 14:58:50;;;;;;;4.25;2.50;;;;;;;;;;1710267;84;21084;-74
2022/05/31 15:01:18;;;;;;;3.62;2.50;;;;;;;;;;1710147;84;21034;-74
2022/05/31 15:03:48;;;;;;;2.92;2.40;;;;;;;;;;1712852;82;21443;-74
2022/05/31 15:06:16;;;;;;;3.02;2.45;;;;;;;;;;1710202;83;21086;-74
2022/05/31 15:08:43;;;;;;;3.10;2.40;;;;;;;;;;1711169;82;21028;-73
2022/05/31 15:19:31;;;;;;;2.50;2.05;;;;;;;;;;1738645;82;21005;-74
2022/05/31 15:21:58;;;;;;;2.10;1.90;;;;;;;;;;1739278;82;21089;-75
2022/05/31 15:24:30;;;;;;;2.92;2.05;;;;;;;;;;1746645;81;21037;-74
2022/05/31 15:26:58;;;;;;;3.17;2.35;;;;;;;;;;1753529;82;21659;-74
2022/05/31 15:29:25;;;;;;;2.20;2.00;;;;;;;;;;1751193;81;21040;-75
2022/05/31 15:31:51;;;;;;;2.72;2.00;;;;;;;;;;1753702;81;21013;-73
2022/05/31 15:34:17;;;;;;;2.12;1.92;;;;;;;;;;1751647;81;21548;-74
2022/05/31 15:36:43;;;;;;;2.83;1.85;;;;;;;;;;1753650;82;21032;-73
2022/05/31 15:39:10;;;;;;;2.62;1.90;;;;;;;;;;1741818;81;21060;-74
2022/05/31 15:41:38;;;;;;;4.83;2.08;;;;;;;;;;1745343;82;21068;-74
2022/05/31 15:44:04;;;;;;;3.02;1.90;;;;;;;;;;1744691;81;21003;-74
2022/05/31 15:46:31;;;;;;;2.87;1.90;;;;;;;;;;1741535;82;21086;-73
2022/05/31 15:48:59;;;;;;;2.62;2.08;;;;;;;;;;1739408;82;21105;-73
2022/05/31 15:51:29;;;;;;;3.20;1.80;;;;;;;;;;1729452;82;21038;-74